createdAt,value
2023-05-05T04:44:36.190Z,11.52
2023-05-05T04:47:06.590Z,11.57
2023-05-05T04:49:36.675Z,11.66
2023-05-05T04:52:06.027Z,11.76
2023-05-05T04:54:38.656Z,11.86
2023-05-05T04:57:08.112Z,11.99
2023-05-05T04:59:37.432Z,12.14
2023-05-05T05:02:07.052Z,12.20
2023-05-05T05:04:36.549Z,12.40
2023-05-05T05:07:06.298Z,12.56
2023-05-05T05:09:35.309Z,12.68
2023-05-05T05:12:04.080Z,12.80
2023-05-05T05:14:37.373Z,12.90
2023-05-05T05:17:06.824Z,12.97
2023-05-05T05:19:36.159Z,13.04
2023-05-05T05:22:05.248Z,13.11
2023-05-05T05:24:36.869Z,13.18
2023-05-05T05:27:10.158Z,13.22
2023-05-05T05:29:41.168Z,13.24
2023-05-05T05:32:09.615Z,13.27
2023-05-05T05:34:38.267Z,13.30
2023-05-05T05:37:08.772Z,13.32
2023-05-05T05:40:26.970Z,13.35
2023-05-05T05:42:54.999Z,13.44
2023-05-05T05:45:25.056Z,13.49
2023-05-05T05:47:53.728Z,13.61
2023-05-05T05:50:21.833Z,13.68
2023-05-05T05:52:49.984Z,13.74
2023-05-05T05:55:18.473Z,13.81
2023-05-05T05:57:47.370Z,13.86
2023-05-05T06:01:09.606Z,13.84
2023-05-05T06:03:38.232Z,13.74
2023-05-05T07:00:55.587Z,13.35
2023-05-05T07:03:28.018Z,13.38
2023-05-05T07:05:58.153Z,13.46
2023-05-05T07:09:21.452Z,13.57
2023-05-05T07:11:50.127Z,13.73
2023-05-05T07:14:18.322Z,13.92
2023-05-05T07:16:46.806Z,14.12
2023-05-05T07:19:16.089Z,14.36
2023-05-05T07:21:45.021Z,14.50
2023-05-05T07:24:13.552Z,14.60
2023-05-05T07:26:41.941Z,14.80
2023-05-05T07:29:11.238Z,15.03
2023-05-05T07:31:40.805Z,15.19
2023-05-05T07:34:09.130Z,15.27
